ASA811 KSFO-PHNL
Flight info
| Callsign | ASA811 |
|---|---|
| Flight time | 4h 55m |
| Altitude | 40000 |
| Route | GNNRR3 BEBOP R464 BITTA MAGGI3 |
| Aircraft | A332/H-SDE3GHIJ2J3J5M1RVWXY/LB2D1 |
Departure
| Time | 2026-05-04 03:53 |
|---|---|
| Airport | San Francisco International Airport (KSFO) |
Arrival
| Time | 2026-05-04 08:49 |
|---|---|
| Airport | Daniel K. Inouye International Airport (PHNL) |
| Time | Latitude | Longitude | Altitude | Speed | Heading |
|---|---|---|---|---|---|
| 2026-05-04 02:53 | 37.61341 | -122.38568 | 25 ft | 0 kts | 67° |
| 2026-05-04 03:23 | 37.61340 | -122.38570 | 30 ft | 2 kts | 67° |
| 2026-05-04 03:24 | 37.61337 | -122.38578 | 30 ft | 0 kts | 67° |
| 2026-05-04 03:30 | 37.61334 | -122.38588 | 30 ft | 3 kts | 67° |
| 2026-05-04 03:30 | 37.61327 | -122.38608 | 29 ft | 3 kts | 66° |
| 2026-05-04 03:30 | 37.61318 | -122.38630 | 30 ft | 3 kts | 50° |
| 2026-05-04 03:31 | 37.61304 | -122.38647 | 30 ft | 3 kts | 31° |
| 2026-05-04 03:31 | 37.61286 | -122.38658 | 30 ft | 3 kts | 27° |
| 2026-05-04 03:31 | 37.61290 | -122.38657 | 30 ft | 3 kts | 22° |
| 2026-05-04 03:31 | 37.61306 | -122.38659 | 29 ft | 3 kts | 338° |
| 2026-05-04 03:32 | 37.61319 | -122.38675 | 30 ft | 3 kts | 306° |
| 2026-05-04 03:32 | 37.61316 | -122.38693 | 30 ft | 3 kts | 247° |
| 2026-05-04 03:32 | 37.61302 | -122.38710 | 27 ft | 3 kts | 217° |
| 2026-05-04 03:32 | 37.61285 | -122.38722 | 29 ft | 3 kts | 207° |
| 2026-05-04 03:33 | 37.61267 | -122.38734 | 28 ft | 3 kts | 207° |
| 2026-05-04 03:33 | 37.61251 | -122.38745 | 27 ft | 3 kts | 207° |
| 2026-05-04 03:33 | 37.61233 | -122.38756 | 25 ft | 3 kts | 207° |
| 2026-05-04 03:33 | 37.61215 | -122.38768 | 27 ft | 3 kts | 207° |
| 2026-05-04 03:34 | 37.61198 | -122.38779 | 30 ft | 2 kts | 207° |
| 2026-05-04 03:34 | 37.61196 | -122.38780 | 30 ft | 0 kts | 207° |
| 2026-05-04 03:37 | 37.61195 | -122.38781 | 30 ft | 2 kts | 207° |
| 2026-05-04 03:38 | 37.61175 | -122.38794 | 25 ft | 4 kts | 207° |
| 2026-05-04 03:38 | 37.61143 | -122.38815 | 27 ft | 6 kts | 207° |
| 2026-05-04 03:38 | 37.61100 | -122.38844 | 26 ft | 8 kts | 208° |
| 2026-05-04 03:38 | 37.61056 | -122.38871 | 27 ft | 7 kts | 198° |
| 2026-05-04 03:39 | 37.61015 | -122.38856 | 27 ft | 7 kts | 147° |
| 2026-05-04 03:39 | 37.60982 | -122.38799 | 26 ft | 9 kts | 118° |
| 2026-05-04 03:39 | 37.60952 | -122.38722 | 27 ft | 9 kts | 117° |
| 2026-05-04 03:39 | 37.60919 | -122.38644 | 27 ft | 11 kts | 118° |
| 2026-05-04 03:40 | 37.60893 | -122.38584 | 30 ft | 7 kts | 118° |
| 2026-05-04 03:40 | 37.60868 | -122.38528 | 28 ft | 6 kts | 128° |
| 2026-05-04 03:40 | 37.60829 | -122.38502 | 27 ft | 7 kts | 165° |
| 2026-05-04 03:40 | 37.60772 | -122.38498 | 28 ft | 9 kts | 180° |
| 2026-05-04 03:41 | 37.60710 | -122.38498 | 27 ft | 7 kts | 178° |
| 2026-05-04 03:41 | 37.60670 | -122.38471 | 26 ft | 7 kts | 133° |
| 2026-05-04 03:41 | 37.60631 | -122.38413 | 28 ft | 10 kts | 130° |
| 2026-05-04 03:41 | 37.60583 | -122.38340 | 30 ft | 12 kts | 130° |
| 2026-05-04 03:42 | 37.60528 | -122.38260 | 29 ft | 12 kts | 126° |
| 2026-05-04 03:42 | 37.60500 | -122.38190 | 30 ft | 7 kts | 107° |
| 2026-05-04 03:42 | 37.60501 | -122.38129 | 29 ft | 8 kts | 80° |
| 2026-05-04 03:42 | 37.60513 | -122.38049 | 25 ft | 10 kts | 79° |
| 2026-05-04 03:43 | 37.60527 | -122.37987 | 26 ft | 7 kts | 63° |
| 2026-05-04 03:43 | 37.60569 | -122.37947 | 30 ft | 9 kts | 25° |
| 2026-05-04 03:43 | 37.60633 | -122.37907 | 28 ft | 12 kts | 28° |
| 2026-05-04 03:43 | 37.60713 | -122.37856 | 28 ft | 14 kts | 27° |
| 2026-05-04 03:44 | 37.60806 | -122.37796 | 25 ft | 16 kts | 27° |
| 2026-05-04 03:44 | 37.60915 | -122.37721 | 27 ft | 19 kts | 29° |
| 2026-05-04 03:44 | 37.61025 | -122.37648 | 29 ft | 16 kts | 27° |
| 2026-05-04 03:44 | 37.61129 | -122.37580 | 28 ft | 16 kts | 27° |
| 2026-05-04 03:45 | 37.61233 | -122.37511 | 27 ft | 18 kts | 27° |
| 2026-05-04 03:45 | 37.61349 | -122.37435 | 28 ft | 16 kts | 27° |
| 2026-05-04 03:45 | 37.61427 | -122.37383 | 28 ft | 12 kts | 27° |
| 2026-05-04 03:45 | 37.61484 | -122.37345 | 29 ft | 8 kts | 31° |
| 2026-05-04 03:46 | 37.61524 | -122.37302 | 28 ft | 9 kts | 46° |
| 2026-05-04 03:46 | 37.61556 | -122.37234 | 24 ft | 8 kts | 69° |
| 2026-05-04 03:46 | 37.61563 | -122.37161 | 24 ft | 8 kts | 95° |
| 2026-05-04 03:46 | 37.61540 | -122.37083 | 27 ft | 11 kts | 117° |
| 2026-05-04 03:47 | 37.61501 | -122.36993 | 28 ft | 13 kts | 117° |
| 2026-05-04 03:47 | 37.61450 | -122.36898 | 25 ft | 11 kts | 131° |
| 2026-05-04 03:47 | 37.61396 | -122.36826 | 28 ft | 10 kts | 133° |
| 2026-05-04 03:47 | 37.61352 | -122.36747 | 27 ft | 12 kts | 120° |
| 2026-05-04 03:48 | 37.61308 | -122.36642 | 29 ft | 15 kts | 117° |
| 2026-05-04 03:48 | 37.61257 | -122.36523 | 27 ft | 14 kts | 118° |
| 2026-05-04 03:48 | 37.61207 | -122.36405 | 29 ft | 16 kts | 118° |
| 2026-05-04 03:48 | 37.61159 | -122.36290 | 29 ft | 16 kts | 118° |
| 2026-05-04 03:49 | 37.61111 | -122.36177 | 28 ft | 14 kts | 118° |
| 2026-05-04 03:49 | 37.61076 | -122.36095 | 30 ft | 8 kts | 118° |
| 2026-05-04 03:49 | 37.61053 | -122.36028 | 26 ft | 7 kts | 107° |
| 2026-05-04 03:49 | 37.61057 | -122.35958 | 24 ft | 7 kts | 70° |
| 2026-05-04 03:50 | 37.61094 | -122.35903 | 27 ft | 9 kts | 35° |
| 2026-05-04 03:50 | 37.61156 | -122.35864 | 28 ft | 11 kts | 27° |
| 2026-05-04 03:50 | 37.61226 | -122.35818 | 30 ft | 12 kts | 27° |
| 2026-05-04 03:50 | 37.61282 | -122.35781 | 27 ft | 9 kts | 28° |
| 2026-05-04 03:51 | 37.61330 | -122.35749 | 28 ft | 8 kts | 26° |
| 2026-05-04 03:51 | 37.61368 | -122.35756 | 27 ft | 6 kts | 322° |
| 2026-05-04 03:51 | 37.61389 | -122.35798 | 29 ft | 5 kts | 296° |
| 2026-05-04 03:51 | 37.61393 | -122.35808 | 28 ft | 0 kts | 296° |
| 2026-05-04 03:52 | 37.61394 | -122.35810 | 28 ft | 1 kts | 296° |
| 2026-05-04 03:52 | 37.61418 | -122.35872 | 30 ft | 27 kts | 296° |
| 2026-05-04 03:52 | 37.61621 | -122.36358 | 29 ft | 92 kts | 298° |
| 2026-05-04 03:52 | 37.62006 | -122.37272 | 27 ft | 143 kts | 298° |
| 2026-05-04 03:53 | 37.62543 | -122.38545 | 178 ft | 178 kts | 294° |
| 2026-05-04 03:53 | 37.63108 | -122.39939 | 903 ft | 182 kts | 294° |
| 2026-05-04 03:53 | 37.63663 | -122.41380 | 1717 ft | 184 kts | 293° |
| 2026-05-04 03:53 | 37.64230 | -122.42838 | 2561 ft | 186 kts | 295° |
| 2026-05-04 03:54 | 37.64853 | -122.44278 | 3444 ft | 189 kts | 297° |
| 2026-05-04 03:54 | 37.65501 | -122.45761 | 4185 ft | 197 kts | 296° |
| 2026-05-04 03:54 | 37.66175 | -122.47335 | 4831 ft | 210 kts | 296° |
| 2026-05-04 03:54 | 37.66747 | -122.49072 | 5431 ft | 219 kts | 284° |
| 2026-05-04 03:55 | 37.66997 | -122.51034 | 5788 ft | 239 kts | 269° |
| 2026-05-04 03:55 | 37.66769 | -122.53207 | 6071 ft | 260 kts | 253° |
| 2026-05-04 03:55 | 37.66220 | -122.55453 | 6579 ft | 273 kts | 249° |
| 2026-05-04 03:55 | 37.65607 | -122.57745 | 7360 ft | 278 kts | 249° |
| 2026-05-04 03:56 | 37.64986 | -122.60075 | 8180 ft | 283 kts | 249° |
| 2026-05-04 03:56 | 37.64360 | -122.62452 | 9000 ft | 287 kts | 250° |
| 2026-05-04 03:56 | 37.63730 | -122.64862 | 9851 ft | 291 kts | 250° |
| 2026-05-04 03:56 | 37.63099 | -122.67286 | 10430 ft | 303 kts | 250° |
| 2026-05-04 03:57 | 37.62419 | -122.69896 | 10749 ft | 323 kts | 250° |
| 2026-05-04 03:57 | 37.61698 | -122.72666 | 11102 ft | 341 kts | 250° |
| 2026-05-04 03:57 | 37.60949 | -122.75553 | 11714 ft | 350 kts | 250° |
| 2026-05-04 03:57 | 37.60184 | -122.78499 | 12416 ft | 355 kts | 250° |
| 2026-05-04 03:58 | 37.58623 | -122.84496 | 13855 ft | 365 kts | 250° |
| 2026-05-04 03:58 | 37.57825 | -122.87554 | 14494 ft | 369 kts | 250° |
| 2026-05-04 03:58 | 37.57019 | -122.90639 | 15184 ft | 373 kts | 251° |
| 2026-05-04 03:59 | 37.56205 | -122.93756 | 15852 ft | 376 kts | 251° |
| 2026-05-04 03:59 | 37.55382 | -122.96897 | 16537 ft | 379 kts | 251° |
| 2026-05-04 03:59 | 37.54550 | -123.00072 | 17207 ft | 383 kts | 251° |
| 2026-05-04 03:59 | 37.53710 | -123.03270 | 17877 ft | 386 kts | 251° |
| 2026-05-04 04:00 | 37.52862 | -123.06497 | 18493 ft | 390 kts | 251° |
| 2026-05-04 04:00 | 37.52005 | -123.09755 | 19037 ft | 394 kts | 251° |
| 2026-05-04 04:00 | 37.51136 | -123.13049 | 19551 ft | 398 kts | 251° |
| 2026-05-04 04:00 | 37.50258 | -123.16378 | 20097 ft | 402 kts | 251° |
| 2026-05-04 04:01 | 37.49372 | -123.19730 | 20661 ft | 405 kts | 251° |
| 2026-05-04 04:01 | 37.48477 | -123.23112 | 21195 ft | 409 kts | 251° |
| 2026-05-04 04:01 | 37.47573 | -123.26527 | 21716 ft | 412 kts | 251° |
| 2026-05-04 04:01 | 37.46674 | -123.29916 | 22230 ft | 416 kts | 251° |
| 2026-05-04 04:02 | 37.45753 | -123.33382 | 22723 ft | 419 kts | 251° |
| 2026-05-04 04:02 | 37.44822 | -123.36881 | 23226 ft | 423 kts | 251° |
| 2026-05-04 04:02 | 37.43886 | -123.40398 | 23695 ft | 426 kts | 250° |
| 2026-05-04 04:02 | 37.42938 | -123.43952 | 24075 ft | 430 kts | 250° |
| 2026-05-04 04:03 | 37.41982 | -123.47531 | 24439 ft | 434 kts | 250° |
| 2026-05-04 04:03 | 37.41012 | -123.51155 | 24806 ft | 438 kts | 250° |
| 2026-05-04 04:03 | 37.40033 | -123.54811 | 25174 ft | 442 kts | 250° |
| 2026-05-04 04:03 | 37.39048 | -123.58486 | 25535 ft | 446 kts | 250° |
| 2026-05-04 04:04 | 37.38051 | -123.62197 | 25892 ft | 450 kts | 250° |
| 2026-05-04 04:04 | 37.37046 | -123.65934 | 26253 ft | 453 kts | 250° |
| 2026-05-04 04:04 | 37.36031 | -123.69700 | 26633 ft | 456 kts | 250° |
| 2026-05-04 04:04 | 37.35014 | -123.73471 | 27099 ft | 457 kts | 250° |
| 2026-05-04 04:05 | 37.33987 | -123.77271 | 27441 ft | 461 kts | 250° |
| 2026-05-04 04:05 | 37.32952 | -123.81100 | 27776 ft | 465 kts | 250° |
| 2026-05-04 04:05 | 37.31905 | -123.84964 | 28119 ft | 468 kts | 250° |
| 2026-05-04 04:05 | 37.30851 | -123.88846 | 28461 ft | 472 kts | 250° |
| 2026-05-04 04:06 | 37.29788 | -123.92758 | 28813 ft | 475 kts | 250° |
| 2026-05-04 04:06 | 37.28715 | -123.96701 | 29159 ft | 478 kts | 250° |
| 2026-05-04 04:06 | 37.27636 | -124.00662 | 29551 ft | 481 kts | 250° |
| 2026-05-04 04:06 | 37.26547 | -124.04651 | 29885 ft | 484 kts | 250° |
| 2026-05-04 04:07 | 37.25464 | -124.08611 | 30185 ft | 487 kts | 250° |
| 2026-05-04 04:07 | 37.24362 | -124.12636 | 30574 ft | 487 kts | 250° |
| 2026-05-04 04:07 | 37.23264 | -124.16641 | 31128 ft | 483 kts | 250° |
| 2026-05-04 04:07 | 37.22177 | -124.20601 | 31716 ft | 478 kts | 250° |
| 2026-05-04 04:08 | 37.21098 | -124.24526 | 32308 ft | 473 kts | 250° |
| 2026-05-04 04:08 | 37.20034 | -124.28388 | 33101 ft | 463 kts | 250° |
| 2026-05-04 04:08 | 37.18999 | -124.32144 | 34048 ft | 449 kts | 250° |
| 2026-05-04 04:08 | 37.17987 | -124.35807 | 34682 ft | 441 kts | 250° |
| 2026-05-04 04:09 | 37.16980 | -124.39447 | 34924 ft | 443 kts | 250° |
| 2026-05-04 04:09 | 37.15965 | -124.43107 | 35093 ft | 446 kts | 250° |
| 2026-05-04 04:09 | 37.14947 | -124.46776 | 35317 ft | 447 kts | 250° |
| 2026-05-04 04:09 | 37.13922 | -124.50466 | 35615 ft | 447 kts | 250° |
| 2026-05-04 04:10 | 37.13231 | -124.52950 | 35827 ft | 446 kts | 250° |
| 2026-05-04 04:10 | 37.11879 | -124.57805 | 36222 ft | 445 kts | 250° |
| 2026-05-04 04:10 | 37.11190 | -124.60275 | 36416 ft | 445 kts | 250° |
| 2026-05-04 04:10 | 37.10168 | -124.63937 | 36688 ft | 445 kts | 250° |
| 2026-05-04 04:11 | 37.09159 | -124.67548 | 36956 ft | 444 kts | 250° |
| 2026-05-04 04:11 | 37.08137 | -124.71199 | 37244 ft | 444 kts | 250° |
| 2026-05-04 04:11 | 37.07116 | -124.74839 | 37526 ft | 443 kts | 250° |
| 2026-05-04 04:11 | 37.06095 | -124.78477 | 37815 ft | 442 kts | 250° |
| 2026-05-04 04:12 | 37.05075 | -124.82106 | 38068 ft | 442 kts | 250° |
| 2026-05-04 04:12 | 37.04053 | -124.85740 | 38325 ft | 441 kts | 250° |
| 2026-05-04 04:12 | 37.03033 | -124.89356 | 38588 ft | 441 kts | 250° |
| 2026-05-04 04:12 | 37.02013 | -124.92971 | 38801 ft | 440 kts | 250° |
| 2026-05-04 04:13 | 37.00993 | -124.96581 | 38984 ft | 440 kts | 250° |
| 2026-05-04 04:13 | 36.99973 | -125.00201 | 39152 ft | 440 kts | 250° |
| 2026-05-04 04:13 | 36.98979 | -125.03817 | 39322 ft | 440 kts | 251° |
| 2026-05-04 04:13 | 36.97997 | -125.07454 | 39420 ft | 442 kts | 251° |
| 2026-05-04 04:14 | 36.96034 | -125.14781 | 39658 ft | 445 kts | 251° |
| 2026-05-04 04:14 | 36.95051 | -125.18444 | 39852 ft | 444 kts | 251° |
| 2026-05-04 04:14 | 36.94063 | -125.22109 | 40002 ft | 445 kts | 251° |
| 2026-05-04 04:15 | 36.92066 | -125.29489 | 40037 ft | 451 kts | 251° |
| 2026-05-04 04:15 | 36.90046 | -125.36919 | 40036 ft | 452 kts | 251° |
| 2026-05-04 04:16 | 36.88036 | -125.44290 | 40036 ft | 451 kts | 251° |
| 2026-05-04 04:16 | 36.86009 | -125.51702 | 40038 ft | 451 kts | 251° |
| 2026-05-04 04:17 | 36.83981 | -125.59101 | 40038 ft | 450 kts | 251° |
| 2026-05-04 04:17 | 36.81946 | -125.66502 | 40040 ft | 450 kts | 251° |
| 2026-05-04 04:18 | 36.79910 | -125.73889 | 40033 ft | 450 kts | 251° |
| 2026-05-04 04:18 | 36.77871 | -125.81264 | 40035 ft | 450 kts | 251° |
| 2026-05-04 04:19 | 36.75826 | -125.88640 | 40037 ft | 450 kts | 251° |
| 2026-05-04 04:19 | 36.73777 | -125.96012 | 40038 ft | 450 kts | 251° |
| 2026-05-04 04:20 | 36.71724 | -126.03377 | 40037 ft | 450 kts | 251° |
| 2026-05-04 04:20 | 36.69678 | -126.10698 | 40039 ft | 450 kts | 251° |
| 2026-05-04 04:21 | 36.67617 | -126.18051 | 40035 ft | 450 kts | 251° |
| 2026-05-04 04:21 | 36.65550 | -126.25406 | 40028 ft | 450 kts | 251° |
| 2026-05-04 04:22 | 36.63480 | -126.32753 | 40037 ft | 449 kts | 251° |
| 2026-05-04 04:22 | 36.61408 | -126.40085 | 40037 ft | 449 kts | 251° |
| 2026-05-04 04:23 | 36.59332 | -126.47411 | 40041 ft | 449 kts | 251° |
| 2026-05-04 04:23 | 36.57252 | -126.54733 | 40038 ft | 449 kts | 251° |
| 2026-05-04 04:24 | 36.55168 | -126.62050 | 40036 ft | 448 kts | 251° |
| 2026-05-04 04:24 | 36.53080 | -126.69361 | 40043 ft | 448 kts | 251° |
| 2026-05-04 04:25 | 36.50989 | -126.76664 | 40043 ft | 448 kts | 251° |
| 2026-05-04 04:25 | 36.48892 | -126.83965 | 40048 ft | 449 kts | 251° |
| 2026-05-04 04:26 | 36.46805 | -126.91214 | 40050 ft | 449 kts | 251° |
| 2026-05-04 04:26 | 36.44695 | -126.98517 | 40039 ft | 449 kts | 251° |
| 2026-05-04 04:27 | 36.42580 | -127.05807 | 40049 ft | 449 kts | 251° |
| 2026-05-04 04:27 | 36.40461 | -127.13094 | 40033 ft | 449 kts | 251° |
| 2026-05-04 04:28 | 36.38337 | -127.20376 | 40051 ft | 449 kts | 251° |
| 2026-05-04 04:28 | 36.36209 | -127.27658 | 40045 ft | 449 kts | 251° |
| 2026-05-04 04:29 | 36.34076 | -127.34935 | 40044 ft | 449 kts | 251° |
| 2026-05-04 04:29 | 36.31938 | -127.42211 | 40045 ft | 449 kts | 251° |
| 2026-05-04 04:30 | 36.29795 | -127.49485 | 40043 ft | 449 kts | 251° |
| 2026-05-04 04:30 | 36.27651 | -127.56743 | 40045 ft | 448 kts | 251° |
| 2026-05-04 04:31 | 36.25516 | -127.63951 | 40047 ft | 448 kts | 250° |
| 2026-05-04 04:31 | 36.23364 | -127.71201 | 40047 ft | 449 kts | 250° |
| 2026-05-04 04:32 | 36.21204 | -127.78455 | 40048 ft | 449 kts | 251° |
| 2026-05-04 04:32 | 36.19041 | -127.85702 | 40049 ft | 449 kts | 250° |
| 2026-05-04 04:33 | 36.16875 | -127.92942 | 40049 ft | 449 kts | 250° |
| 2026-05-04 04:33 | 36.14703 | -128.00183 | 40050 ft | 449 kts | 250° |
| 2026-05-04 04:34 | 36.12527 | -128.07415 | 40051 ft | 448 kts | 250° |
| 2026-05-04 04:34 | 36.10349 | -128.14640 | 40050 ft | 448 kts | 250° |
| 2026-05-04 04:35 | 36.08167 | -128.21858 | 40053 ft | 448 kts | 250° |
| 2026-05-04 04:35 | 36.05975 | -128.29092 | 40053 ft | 449 kts | 250° |
| 2026-05-04 04:36 | 36.03781 | -128.36312 | 40052 ft | 449 kts | 250° |
| 2026-05-04 04:36 | 36.01581 | -128.43533 | 40056 ft | 449 kts | 250° |
| 2026-05-04 04:37 | 35.97173 | -128.57950 | 40056 ft | 449 kts | 250° |
| 2026-05-04 04:38 | 35.94961 | -128.65157 | 40056 ft | 449 kts | 250° |
| 2026-05-04 04:38 | 35.92748 | -128.72350 | 40056 ft | 448 kts | 250° |
| 2026-05-04 04:39 | 35.90547 | -128.79487 | 40059 ft | 448 kts | 250° |
| 2026-05-04 04:39 | 35.88311 | -128.86719 | 40059 ft | 448 kts | 250° |
| 2026-05-04 04:40 | 35.86090 | -128.93883 | 40060 ft | 446 kts | 250° |
| 2026-05-04 04:40 | 35.83892 | -129.00953 | 40061 ft | 443 kts | 250° |
| 2026-05-04 04:41 | 35.81688 | -129.08029 | 40064 ft | 443 kts | 250° |
| 2026-05-04 04:41 | 35.79478 | -129.15106 | 40062 ft | 442 kts | 250° |
| 2026-05-04 04:42 | 35.77266 | -129.22173 | 40067 ft | 442 kts | 250° |
| 2026-05-04 04:42 | 35.75050 | -129.29236 | 40067 ft | 442 kts | 250° |
| 2026-05-04 04:43 | 35.72831 | -129.36290 | 40065 ft | 442 kts | 250° |
| 2026-05-04 04:43 | 35.70607 | -129.43344 | 40069 ft | 442 kts | 250° |
| 2026-05-04 04:44 | 35.68379 | -129.50396 | 40069 ft | 442 kts | 250° |
| 2026-05-04 04:44 | 35.66147 | -129.57439 | 40069 ft | 442 kts | 250° |
| 2026-05-04 04:45 | 35.63912 | -129.64477 | 40074 ft | 442 kts | 250° |
| 2026-05-04 04:47 | 35.56058 | -129.89076 | 40079 ft | 442 kts | 250° |
| 2026-05-04 04:47 | 35.53804 | -129.96098 | 40080 ft | 441 kts | 250° |
| 2026-05-04 04:48 | 35.51548 | -130.03108 | 40067 ft | 441 kts | 250° |
| 2026-05-04 04:49 | 35.45893 | -130.20612 | 40080 ft | 441 kts | 250° |
| 2026-05-04 04:49 | 35.43624 | -130.27606 | 40081 ft | 441 kts | 250° |
| 2026-05-04 04:50 | 35.41346 | -130.34611 | 40083 ft | 442 kts | 250° |
| 2026-05-04 04:50 | 35.39067 | -130.41604 | 40088 ft | 442 kts | 250° |
| 2026-05-04 04:51 | 35.36797 | -130.48552 | 40079 ft | 443 kts | 250° |
| 2026-05-04 04:51 | 35.34497 | -130.55578 | 40086 ft | 445 kts | 250° |
| 2026-05-04 04:52 | 35.32187 | -130.62617 | 40085 ft | 446 kts | 250° |
| 2026-05-04 04:52 | 35.29867 | -130.69666 | 40091 ft | 446 kts | 250° |
| 2026-05-04 04:53 | 35.27546 | -130.76704 | 40091 ft | 446 kts | 250° |
| 2026-05-04 04:53 | 35.25221 | -130.83739 | 40092 ft | 446 kts | 250° |
| 2026-05-04 04:54 | 35.22892 | -130.90769 | 40096 ft | 446 kts | 250° |
| 2026-05-04 04:54 | 35.20557 | -130.97799 | 40094 ft | 446 kts | 250° |
| 2026-05-04 04:55 | 35.18219 | -131.04823 | 40096 ft | 446 kts | 250° |
| 2026-05-04 04:55 | 35.16274 | -131.10656 | 40099 ft | 446 kts | 250° |
| 2026-05-04 04:56 | 35.13928 | -131.17673 | 40096 ft | 446 kts | 250° |
| 2026-05-04 04:56 | 35.11579 | -131.24685 | 40095 ft | 446 kts | 250° |
| 2026-05-04 04:57 | 35.09224 | -131.31700 | 40104 ft | 446 kts | 250° |
| 2026-05-04 04:57 | 35.06865 | -131.38708 | 40105 ft | 446 kts | 250° |
| 2026-05-04 04:58 | 35.04502 | -131.45714 | 40107 ft | 447 kts | 250° |
| 2026-05-04 04:58 | 35.02131 | -131.52726 | 40110 ft | 447 kts | 250° |
| 2026-05-04 04:59 | 34.99759 | -131.59727 | 40109 ft | 447 kts | 250° |
| 2026-05-04 04:59 | 34.97381 | -131.66728 | 40115 ft | 446 kts | 250° |
| 2026-05-04 05:00 | 34.95000 | -131.73722 | 40117 ft | 446 kts | 250° |
| 2026-05-04 05:01 | 34.91439 | -131.84153 | 40121 ft | 446 kts | 250° |
| 2026-05-04 05:01 | 34.89051 | -131.91129 | 40121 ft | 446 kts | 250° |
| 2026-05-04 05:02 | 34.86657 | -131.98106 | 40124 ft | 446 kts | 250° |
| 2026-05-04 05:02 | 34.84258 | -132.05082 | 40127 ft | 446 kts | 250° |
| 2026-05-04 05:03 | 34.81855 | -132.12055 | 40129 ft | 446 kts | 250° |
| 2026-05-04 05:04 | 34.77040 | -132.25980 | 40130 ft | 446 kts | 250° |
| 2026-05-04 05:04 | 34.74629 | -132.32929 | 40132 ft | 446 kts | 250° |
| 2026-05-04 05:06 | 34.64954 | -132.60660 | 40135 ft | 446 kts | 250° |
| 2026-05-04 05:07 | 34.62524 | -132.67588 | 40140 ft | 446 kts | 251° |
| 2026-05-04 05:07 | 34.60086 | -132.74523 | 40141 ft | 446 kts | 251° |
| 2026-05-04 05:09 | 34.49056 | -133.05709 | 40141 ft | 450 kts | 251° |
| 2026-05-04 05:10 | 34.46576 | -133.12677 | 40152 ft | 450 kts | 251° |
| 2026-05-04 05:10 | 34.44091 | -133.19643 | 40151 ft | 450 kts | 251° |
| 2026-05-04 05:11 | 34.41621 | -133.26553 | 40147 ft | 450 kts | 251° |
| 2026-05-04 05:11 | 34.39131 | -133.33504 | 40153 ft | 450 kts | 251° |
| 2026-05-04 05:12 | 34.36640 | -133.40447 | 40157 ft | 450 kts | 251° |
| 2026-05-04 05:12 | 34.34143 | -133.47386 | 40160 ft | 450 kts | 251° |
| 2026-05-04 05:13 | 34.31640 | -133.54327 | 40163 ft | 450 kts | 251° |
| 2026-05-04 05:13 | 34.29135 | -133.61262 | 40158 ft | 450 kts | 251° |
| 2026-05-04 05:14 | 34.26629 | -133.68186 | 40167 ft | 449 kts | 252° |
| 2026-05-04 05:14 | 34.24121 | -133.75096 | 40167 ft | 449 kts | 251° |
| 2026-05-04 05:15 | 34.21612 | -133.81996 | 40170 ft | 449 kts | 251° |
| 2026-05-04 05:15 | 34.19100 | -133.88890 | 40170 ft | 448 kts | 252° |
| 2026-05-04 05:16 | 34.16585 | -133.95778 | 40171 ft | 448 kts | 252° |
| 2026-05-04 05:16 | 34.14084 | -134.02611 | 40177 ft | 448 kts | 252° |
| 2026-05-04 05:17 | 34.11565 | -134.09481 | 40182 ft | 447 kts | 252° |
| 2026-05-04 05:17 | 34.09045 | -134.16339 | 40182 ft | 447 kts | 252° |
| 2026-05-04 05:18 | 34.06522 | -134.23189 | 40164 ft | 447 kts | 252° |
| 2026-05-04 05:18 | 34.03996 | -134.30035 | 40184 ft | 447 kts | 252° |
| 2026-05-04 05:19 | 34.01464 | -134.36886 | 40181 ft | 447 kts | 252° |
| 2026-05-04 05:19 | 33.98928 | -134.43735 | 40170 ft | 447 kts | 252° |
| 2026-05-04 05:20 | 33.96386 | -134.50586 | 40187 ft | 448 kts | 252° |
| 2026-05-04 05:20 | 33.93859 | -134.57384 | 40189 ft | 448 kts | 252° |
| 2026-05-04 05:21 | 33.91311 | -134.64225 | 40183 ft | 448 kts | 252° |
| 2026-05-04 05:21 | 33.88757 | -134.71067 | 40195 ft | 448 kts | 252° |
| 2026-05-04 05:22 | 33.86203 | -134.77895 | 40191 ft | 448 kts | 252° |
| 2026-05-04 05:22 | 33.83642 | -134.84726 | 40197 ft | 448 kts | 252° |
| 2026-05-04 05:23 | 33.81078 | -134.91552 | 40200 ft | 448 kts | 252° |
| 2026-05-04 05:23 | 33.78509 | -134.98377 | 40200 ft | 448 kts | 252° |
| 2026-05-04 05:24 | 33.75934 | -135.05205 | 40200 ft | 448 kts | 252° |
| 2026-05-04 05:24 | 33.73356 | -135.12027 | 40200 ft | 448 kts | 252° |
| 2026-05-04 05:25 | 33.70776 | -135.18839 | 40203 ft | 448 kts | 252° |
| 2026-05-04 05:25 | 33.68186 | -135.25666 | 40203 ft | 450 kts | 252° |
| 2026-05-04 05:26 | 33.65587 | -135.32501 | 40203 ft | 450 kts | 252° |
| 2026-05-04 05:26 | 33.62999 | -135.39292 | 40190 ft | 450 kts | 252° |
| 2026-05-04 05:28 | 33.52518 | -135.66657 | 40202 ft | 453 kts | 252° |
| 2026-05-04 05:29 | 33.49881 | -135.73504 | 40213 ft | 452 kts | 252° |
| 2026-05-04 05:29 | 33.47244 | -135.80339 | 40219 ft | 452 kts | 252° |
| 2026-05-04 05:31 | 33.36655 | -136.07653 | 40218 ft | 453 kts | 251° |
| 2026-05-04 05:32 | 33.33992 | -136.14488 | 40221 ft | 453 kts | 251° |
| 2026-05-04 05:33 | 33.29995 | -136.24717 | 40221 ft | 452 kts | 251° |
| 2026-05-04 05:33 | 33.27326 | -136.31532 | 40225 ft | 453 kts | 251° |
| 2026-05-04 05:34 | 33.24653 | -136.38345 | 40219 ft | 452 kts | 251° |
| 2026-05-04 05:34 | 33.21981 | -136.45137 | 40226 ft | 452 kts | 251° |
| 2026-05-04 05:35 | 33.19303 | -136.51935 | 40231 ft | 452 kts | 251° |
| 2026-05-04 05:35 | 33.16626 | -136.58719 | 40216 ft | 452 kts | 251° |
| 2026-05-04 05:36 | 33.13942 | -136.65502 | 40233 ft | 452 kts | 251° |
| 2026-05-04 05:36 | 33.11257 | -136.72277 | 40234 ft | 451 kts | 251° |
| 2026-05-04 05:37 | 33.08586 | -136.79003 | 40233 ft | 451 kts | 250° |
| 2026-05-04 05:37 | 33.05895 | -136.85767 | 40238 ft | 451 kts | 250° |
| 2026-05-04 05:38 | 33.01852 | -136.95901 | 40238 ft | 451 kts | 250° |
| 2026-05-04 05:38 | 32.99152 | -137.02653 | 40237 ft | 452 kts | 250° |
| 2026-05-04 05:39 | 32.95092 | -137.12783 | 40240 ft | 452 kts | 250° |
| 2026-05-04 05:40 | 32.91023 | -137.22904 | 40243 ft | 452 kts | 250° |
| 2026-05-04 05:40 | 32.88307 | -137.29645 | 40233 ft | 452 kts | 250° |
| 2026-05-04 05:41 | 32.85587 | -137.36380 | 40248 ft | 452 kts | 250° |
| 2026-05-04 05:41 | 32.82864 | -137.43111 | 40246 ft | 452 kts | 250° |
| 2026-05-04 05:42 | 32.80153 | -137.49800 | 40246 ft | 452 kts | 250° |
| 2026-05-04 05:42 | 32.77423 | -137.56522 | 40246 ft | 452 kts | 250° |
| 2026-05-04 05:43 | 32.74687 | -137.63244 | 40247 ft | 452 kts | 250° |
| 2026-05-04 05:45 | 32.64172 | -137.88966 | 40254 ft | 452 kts | 249° |
| 2026-05-04 05:47 | 32.53143 | -138.15745 | 40258 ft | 452 kts | 249° |
| 2026-05-04 05:47 | 32.50377 | -138.22429 | 40253 ft | 452 kts | 249° |
| 2026-05-04 05:48 | 32.47609 | -138.29105 | 40258 ft | 451 kts | 249° |
| 2026-05-04 05:48 | 32.44857 | -138.35728 | 40260 ft | 451 kts | 249° |
| 2026-05-04 05:49 | 32.42085 | -138.42390 | 40260 ft | 451 kts | 249° |
| 2026-05-04 05:49 | 32.39308 | -138.49051 | 40262 ft | 451 kts | 248° |
| 2026-05-04 05:51 | 32.28177 | -138.75620 | 40263 ft | 450 kts | 248° |
| 2026-05-04 05:52 | 32.25390 | -138.82243 | 40262 ft | 450 kts | 248° |
| 2026-05-04 05:52 | 32.22599 | -138.88860 | 40263 ft | 450 kts | 248° |
| 2026-05-04 05:54 | 32.11420 | -139.15253 | 40261 ft | 450 kts | 248° |
| 2026-05-04 05:55 | 32.08614 | -139.21846 | 40276 ft | 449 kts | 248° |
| 2026-05-04 05:55 | 32.05807 | -139.28431 | 40267 ft | 449 kts | 248° |
| 2026-05-04 05:56 | 32.02996 | -139.35013 | 40274 ft | 449 kts | 247° |
| 2026-05-04 05:56 | 32.00184 | -139.41584 | 40264 ft | 449 kts | 247° |
| 2026-05-04 05:57 | 31.97390 | -139.48102 | 40266 ft | 449 kts | 247° |
| 2026-05-04 05:57 | 31.94573 | -139.54662 | 40266 ft | 449 kts | 247° |
| 2026-05-04 05:58 | 31.91756 | -139.61211 | 40270 ft | 448 kts | 247° |
| 2026-05-04 05:58 | 31.88938 | -139.67748 | 40263 ft | 448 kts | 247° |
| 2026-05-04 05:59 | 31.86118 | -139.74281 | 40270 ft | 448 kts | 247° |
| 2026-05-04 05:59 | 31.83295 | -139.80807 | 40267 ft | 447 kts | 246° |
| 2026-05-04 06:00 | 31.80472 | -139.87322 | 40272 ft | 447 kts | 246° |
| 2026-05-04 06:00 | 31.77642 | -139.93843 | 40274 ft | 447 kts | 246° |
| 2026-05-04 06:01 | 31.74811 | -140.00353 | 40269 ft | 447 kts | 246° |
| 2026-05-04 06:03 | 31.63480 | -140.26294 | 40270 ft | 446 kts | 246° |
| 2026-05-04 06:05 | 31.50710 | -140.55311 | 40267 ft | 445 kts | 246° |
| 2026-05-04 06:06 | 31.47865 | -140.61746 | 40266 ft | 445 kts | 246° |
| 2026-05-04 06:06 | 31.45017 | -140.68177 | 40263 ft | 445 kts | 245° |
| 2026-05-04 06:07 | 31.42163 | -140.74607 | 40266 ft | 444 kts | 245° |
| 2026-05-04 06:07 | 31.39313 | -140.81019 | 40274 ft | 444 kts | 245° |
| 2026-05-04 06:08 | 31.36457 | -140.87434 | 40269 ft | 444 kts | 245° |
| 2026-05-04 06:08 | 31.33619 | -140.93796 | 40271 ft | 443 kts | 245° |
| 2026-05-04 06:09 | 31.30765 | -141.00183 | 40264 ft | 443 kts | 245° |
| 2026-05-04 06:11 | 31.19317 | -141.25700 | 40269 ft | 443 kts | 245° |
| 2026-05-04 06:13 | 31.07811 | -141.51140 | 40265 ft | 443 kts | 245° |
| 2026-05-04 06:14 | 30.97722 | -141.73305 | 40271 ft | 442 kts | 244° |
| 2026-05-04 06:15 | 30.94837 | -141.79620 | 40267 ft | 442 kts | 244° |
| 2026-05-04 06:15 | 30.91968 | -141.85889 | 40269 ft | 441 kts | 244° |
| 2026-05-04 06:16 | 30.89085 | -141.92178 | 40267 ft | 440 kts | 244° |
| 2026-05-04 06:16 | 30.86199 | -141.98465 | 40268 ft | 440 kts | 244° |
| 2026-05-04 06:17 | 30.83306 | -142.04755 | 40267 ft | 440 kts | 244° |
| 2026-05-04 06:17 | 30.80413 | -142.11033 | 40271 ft | 439 kts | 244° |
| 2026-05-04 06:18 | 30.77523 | -142.17295 | 40268 ft | 439 kts | 244° |
| 2026-05-04 06:20 | 30.65943 | -142.42288 | 40268 ft | 438 kts | 244° |
| 2026-05-04 06:21 | 30.58707 | -142.57823 | 40272 ft | 438 kts | 244° |
| 2026-05-04 06:22 | 30.55801 | -142.64044 | 40274 ft | 438 kts | 244° |
| 2026-05-04 06:25 | 30.35449 | -143.07335 | 40270 ft | 436 kts | 243° |
| 2026-05-04 06:26 | 30.32535 | -143.13494 | 40266 ft | 436 kts | 243° |
| 2026-05-04 06:26 | 30.29620 | -143.19646 | 40268 ft | 436 kts | 243° |
| 2026-05-04 06:27 | 30.22339 | -143.34968 | 40269 ft | 435 kts | 243° |
| 2026-05-04 06:28 | 30.19416 | -143.41101 | 40268 ft | 435 kts | 243° |
| 2026-05-04 06:28 | 30.16490 | -143.47233 | 40268 ft | 435 kts | 243° |
| 2026-05-04 06:29 | 30.13562 | -143.53359 | 40268 ft | 435 kts | 243° |
| 2026-05-04 06:29 | 30.10628 | -143.59487 | 40271 ft | 435 kts | 243° |
| 2026-05-04 06:30 | 30.07696 | -143.65603 | 40274 ft | 436 kts | 243° |
| 2026-05-04 06:30 | 30.04757 | -143.71723 | 40273 ft | 436 kts | 243° |
| 2026-05-04 06:31 | 30.01815 | -143.77839 | 40271 ft | 436 kts | 243° |
| 2026-05-04 06:31 | 29.98874 | -143.83943 | 40271 ft | 435 kts | 243° |
| 2026-05-04 06:33 | 29.87107 | -144.08276 | 40268 ft | 435 kts | 243° |
| 2026-05-04 06:34 | 29.84153 | -144.14359 | 40268 ft | 435 kts | 243° |
| 2026-05-04 06:34 | 29.81677 | -144.19453 | 40261 ft | 435 kts | 243° |
| 2026-05-04 06:36 | 29.69847 | -144.43698 | 40265 ft | 434 kts | 243° |
| 2026-05-04 06:37 | 29.66881 | -144.49752 | 40258 ft | 434 kts | 243° |
| 2026-05-04 06:37 | 29.63911 | -144.55809 | 40263 ft | 437 kts | 243° |
| 2026-05-04 06:38 | 29.60887 | -144.61968 | 40267 ft | 447 kts | 243° |
| 2026-05-04 06:40 | 29.49930 | -144.84186 | 40265 ft | 459 kts | 243° |
| 2026-05-04 06:40 | 29.48353 | -144.87372 | 40266 ft | 459 kts | 243° |
| 2026-05-04 06:40 | 29.45200 | -144.93741 | 40265 ft | 459 kts | 243° |
| 2026-05-04 06:41 | 29.42039 | -145.00113 | 40269 ft | 459 kts | 243° |
| 2026-05-04 06:41 | 29.38880 | -145.06474 | 40263 ft | 458 kts | 242° |
| 2026-05-04 06:42 | 29.35722 | -145.12820 | 40265 ft | 458 kts | 242° |
| 2026-05-04 06:44 | 29.23067 | -145.38156 | 40252 ft | 457 kts | 242° |
| 2026-05-04 06:44 | 29.19896 | -145.44480 | 40263 ft | 458 kts | 242° |
| 2026-05-04 06:45 | 29.16724 | -145.50796 | 40260 ft | 458 kts | 242° |
| 2026-05-04 06:45 | 29.13548 | -145.57109 | 40261 ft | 457 kts | 242° |
| 2026-05-04 06:46 | 29.10374 | -145.63409 | 40265 ft | 457 kts | 242° |
| 2026-05-04 06:46 | 29.07198 | -145.69703 | 40256 ft | 457 kts | 242° |
| 2026-05-04 06:48 | 28.94502 | -145.94769 | 40256 ft | 456 kts | 242° |
| 2026-05-04 06:50 | 28.81733 | -146.19825 | 40260 ft | 457 kts | 242° |
| 2026-05-04 06:51 | 28.78533 | -146.26080 | 40260 ft | 457 kts | 242° |
| 2026-05-04 06:51 | 28.75330 | -146.32333 | 40259 ft | 457 kts | 242° |
| 2026-05-04 06:52 | 28.72127 | -146.38574 | 40260 ft | 456 kts | 242° |
| 2026-05-04 06:52 | 28.68924 | -146.44806 | 40258 ft | 455 kts | 242° |
| 2026-05-04 06:53 | 28.65723 | -146.51027 | 40254 ft | 455 kts | 242° |
| 2026-05-04 06:53 | 28.62536 | -146.57211 | 40255 ft | 455 kts | 242° |
| 2026-05-04 06:54 | 28.59330 | -146.63421 | 40256 ft | 454 kts | 242° |
| 2026-05-04 06:54 | 28.56128 | -146.69616 | 40258 ft | 454 kts | 242° |
| 2026-05-04 06:55 | 28.52922 | -146.75807 | 40256 ft | 454 kts | 242° |
| 2026-05-04 06:55 | 28.49714 | -146.81995 | 40254 ft | 454 kts | 242° |
| 2026-05-04 06:57 | 28.36871 | -147.06674 | 40249 ft | 453 kts | 242° |
| 2026-05-04 06:58 | 28.33655 | -147.12832 | 40252 ft | 453 kts | 242° |
| 2026-05-04 06:58 | 28.30441 | -147.18976 | 40251 ft | 452 kts | 242° |
| 2026-05-04 06:59 | 28.27226 | -147.25113 | 40245 ft | 452 kts | 242° |
| 2026-05-04 06:59 | 28.24007 | -147.31248 | 40253 ft | 452 kts | 242° |
| 2026-05-04 07:01 | 28.11138 | -147.55690 | 40243 ft | 452 kts | 242° |
| 2026-05-04 07:02 | 28.07912 | -147.61796 | 40249 ft | 452 kts | 242° |
| 2026-05-04 07:02 | 28.04679 | -147.67904 | 40249 ft | 452 kts | 241° |
| 2026-05-04 07:03 | 28.01448 | -147.74001 | 40246 ft | 451 kts | 241° |
| 2026-05-04 07:03 | 27.98220 | -147.80083 | 40246 ft | 451 kts | 241° |
| 2026-05-04 07:04 | 27.94986 | -147.86169 | 40238 ft | 451 kts | 241° |
| 2026-05-04 07:04 | 27.91749 | -147.92251 | 40246 ft | 451 kts | 241° |
| 2026-05-04 07:05 | 27.88515 | -147.98319 | 40249 ft | 450 kts | 241° |
| 2026-05-04 07:05 | 27.85280 | -148.04378 | 40246 ft | 450 kts | 241° |
| 2026-05-04 07:06 | 27.80425 | -148.13454 | 40243 ft | 450 kts | 241° |
| 2026-05-04 07:07 | 27.77185 | -148.19501 | 40240 ft | 450 kts | 241° |
| 2026-05-04 07:09 | 27.64228 | -148.43596 | 40245 ft | 449 kts | 241° |
| 2026-05-04 07:09 | 27.60977 | -148.49622 | 40245 ft | 449 kts | 241° |
| 2026-05-04 07:10 | 27.57733 | -148.55626 | 40241 ft | 449 kts | 241° |
| 2026-05-04 07:12 | 27.44734 | -148.79601 | 40239 ft | 449 kts | 241° |
| 2026-05-04 07:12 | 27.41475 | -148.85591 | 40239 ft | 449 kts | 241° |
| 2026-05-04 07:13 | 27.38214 | -148.91576 | 40235 ft | 449 kts | 241° |
| 2026-05-04 07:13 | 27.34948 | -148.97561 | 40239 ft | 449 kts | 241° |
| 2026-05-04 07:14 | 27.26779 | -149.12498 | 40238 ft | 448 kts | 241° |
| 2026-05-04 07:15 | 27.23512 | -149.18459 | 40237 ft | 448 kts | 241° |
| 2026-05-04 07:15 | 27.20241 | -149.24417 | 40238 ft | 448 kts | 241° |
| 2026-05-04 07:16 | 27.16982 | -149.30345 | 40238 ft | 448 kts | 240° |
| 2026-05-04 07:16 | 27.13706 | -149.36298 | 40238 ft | 448 kts | 240° |
| 2026-05-04 07:17 | 27.10429 | -149.42242 | 40236 ft | 448 kts | 240° |
| 2026-05-04 07:17 | 27.07153 | -149.48178 | 40222 ft | 448 kts | 240° |
| 2026-05-04 07:18 | 27.03871 | -149.54119 | 40236 ft | 448 kts | 240° |
| 2026-05-04 07:18 | 27.00586 | -149.60054 | 40238 ft | 448 kts | 240° |
| 2026-05-04 07:19 | 26.97298 | -149.65986 | 40235 ft | 447 kts | 240° |
| 2026-05-04 07:19 | 26.94016 | -149.71901 | 40233 ft | 447 kts | 240° |
| 2026-05-04 07:20 | 26.90733 | -149.77811 | 40235 ft | 447 kts | 240° |
| 2026-05-04 07:20 | 26.87446 | -149.83718 | 40232 ft | 447 kts | 240° |
| 2026-05-04 07:22 | 26.74827 | -150.06326 | 40232 ft | 446 kts | 240° |
| 2026-05-04 07:23 | 26.71529 | -150.12216 | 40235 ft | 446 kts | 240° |
| 2026-05-04 07:23 | 26.68230 | -150.18100 | 40238 ft | 447 kts | 240° |
| 2026-05-04 07:24 | 26.64930 | -150.23979 | 40232 ft | 446 kts | 240° |
| 2026-05-04 07:24 | 26.61650 | -150.29813 | 40233 ft | 446 kts | 240° |
| 2026-05-04 07:26 | 26.48428 | -150.53257 | 40237 ft | 446 kts | 240° |
| 2026-05-04 07:27 | 26.45118 | -150.59108 | 40238 ft | 446 kts | 240° |
| 2026-05-04 07:27 | 26.41803 | -150.64959 | 40226 ft | 446 kts | 240° |
| 2026-05-04 07:28 | 26.38485 | -150.70807 | 40238 ft | 446 kts | 240° |
| 2026-05-04 07:28 | 26.35189 | -150.76612 | 40231 ft | 446 kts | 240° |
| 2026-05-04 07:29 | 26.31873 | -150.82441 | 40230 ft | 445 kts | 240° |
| 2026-05-04 07:29 | 26.28553 | -150.88272 | 40226 ft | 445 kts | 240° |
| 2026-05-04 07:30 | 26.25233 | -150.94094 | 40229 ft | 445 kts | 240° |
| 2026-05-04 07:30 | 26.21907 | -150.99919 | 40234 ft | 445 kts | 240° |
| 2026-05-04 07:31 | 26.18579 | -151.05741 | 40232 ft | 445 kts | 240° |
| 2026-05-04 07:33 | 26.05253 | -151.28978 | 40229 ft | 446 kts | 240° |
| 2026-05-04 07:33 | 26.01911 | -151.34789 | 40225 ft | 446 kts | 240° |
| 2026-05-04 07:34 | 25.98570 | -151.40587 | 40227 ft | 445 kts | 240° |
| 2026-05-04 07:34 | 25.95228 | -151.46382 | 40226 ft | 445 kts | 240° |
| 2026-05-04 07:35 | 25.91885 | -151.52171 | 40220 ft | 445 kts | 240° |
| 2026-05-04 07:35 | 25.88532 | -151.57970 | 40222 ft | 446 kts | 240° |
| 2026-05-04 07:36 | 25.85178 | -151.63764 | 40224 ft | 446 kts | 240° |
| 2026-05-04 07:38 | 25.71762 | -151.86866 | 40217 ft | 446 kts | 240° |
| 2026-05-04 07:38 | 25.68392 | -151.92652 | 40222 ft | 447 kts | 240° |
| 2026-05-04 07:39 | 25.65019 | -151.98434 | 40217 ft | 447 kts | 240° |
| 2026-05-04 07:39 | 25.61644 | -152.04213 | 40217 ft | 447 kts | 240° |
| 2026-05-04 07:40 | 25.58283 | -152.09960 | 40217 ft | 447 kts | 240° |
| 2026-05-04 07:40 | 25.54904 | -152.15733 | 40217 ft | 447 kts | 240° |
| 2026-05-04 07:41 | 25.51523 | -152.21500 | 40216 ft | 447 kts | 240° |
| 2026-05-04 07:41 | 25.48140 | -152.27265 | 40219 ft | 446 kts | 240° |
| 2026-05-04 07:42 | 25.44757 | -152.33022 | 40221 ft | 446 kts | 240° |
| 2026-05-04 07:42 | 25.41371 | -152.38778 | 40221 ft | 446 kts | 240° |
| 2026-05-04 07:43 | 25.37982 | -152.44532 | 40217 ft | 446 kts | 240° |
| 2026-05-04 07:43 | 25.34591 | -152.50281 | 40216 ft | 446 kts | 240° |
| 2026-05-04 07:44 | 25.31199 | -152.56025 | 40209 ft | 446 kts | 240° |
| 2026-05-04 07:44 | 25.27800 | -152.61775 | 40214 ft | 447 kts | 240° |
| 2026-05-04 07:45 | 25.24398 | -152.67522 | 40217 ft | 447 kts | 240° |
| 2026-05-04 07:45 | 25.20993 | -152.73267 | 40212 ft | 447 kts | 240° |
| 2026-05-04 07:46 | 25.17587 | -152.79007 | 40213 ft | 447 kts | 240° |
| 2026-05-04 07:46 | 25.14201 | -152.84707 | 40212 ft | 447 kts | 240° |
| 2026-05-04 07:47 | 25.10794 | -152.90435 | 40206 ft | 446 kts | 240° |
| 2026-05-04 07:49 | 24.97130 | -153.13340 | 40212 ft | 447 kts | 240° |
| 2026-05-04 07:49 | 24.93708 | -153.19058 | 40211 ft | 447 kts | 239° |
| 2026-05-04 07:50 | 24.90287 | -153.24770 | 40194 ft | 447 kts | 239° |
| 2026-05-04 07:50 | 24.86858 | -153.30487 | 40208 ft | 447 kts | 239° |
| 2026-05-04 07:51 | 24.83446 | -153.36169 | 40208 ft | 448 kts | 239° |
| 2026-05-04 07:51 | 24.80008 | -153.41887 | 40208 ft | 448 kts | 239° |
| 2026-05-04 07:52 | 24.76571 | -153.47596 | 40208 ft | 447 kts | 239° |
| 2026-05-04 07:52 | 24.73131 | -153.53304 | 40208 ft | 447 kts | 239° |
| 2026-05-04 07:54 | 24.59352 | -153.76102 | 40207 ft | 448 kts | 239° |
| 2026-05-04 07:55 | 24.55904 | -153.81789 | 40207 ft | 447 kts | 239° |
| 2026-05-04 07:55 | 24.52454 | -153.87474 | 40209 ft | 447 kts | 239° |
| 2026-05-04 07:56 | 24.48998 | -153.93162 | 40207 ft | 447 kts | 239° |
| 2026-05-04 07:56 | 24.45546 | -153.98838 | 40204 ft | 448 kts | 239° |
| 2026-05-04 07:57 | 24.42084 | -154.04522 | 40207 ft | 448 kts | 239° |
| 2026-05-04 07:57 | 24.38620 | -154.10203 | 40204 ft | 447 kts | 239° |
| 2026-05-04 07:58 | 24.35187 | -154.15827 | 40203 ft | 447 kts | 239° |
| 2026-05-04 07:58 | 24.31703 | -154.21528 | 40203 ft | 447 kts | 239° |
| 2026-05-04 07:59 | 24.28259 | -154.27147 | 40204 ft | 447 kts | 239° |
| 2026-05-04 07:59 | 24.24774 | -154.32790 | 40193 ft | 447 kts | 239° |
| 2026-05-04 08:00 | 24.21278 | -154.38436 | 40206 ft | 447 kts | 239° |
| 2026-05-04 08:02 | 24.07314 | -154.60946 | 40198 ft | 447 kts | 239° |
| 2026-05-04 08:02 | 24.03816 | -154.66570 | 40199 ft | 447 kts | 239° |
| 2026-05-04 08:03 | 24.00319 | -154.72186 | 40197 ft | 447 kts | 238° |
| 2026-05-04 08:03 | 23.96813 | -154.77811 | 40200 ft | 447 kts | 238° |
| 2026-05-04 08:04 | 23.93306 | -154.83429 | 40201 ft | 447 kts | 238° |
| 2026-05-04 08:04 | 23.89796 | -154.89047 | 40196 ft | 447 kts | 238° |
| 2026-05-04 08:05 | 23.86289 | -154.94655 | 40200 ft | 447 kts | 238° |
| 2026-05-04 08:05 | 23.82777 | -155.00263 | 40197 ft | 447 kts | 238° |
| 2026-05-04 08:06 | 23.79266 | -155.05865 | 40194 ft | 447 kts | 238° |
| 2026-05-04 08:06 | 23.75749 | -155.11468 | 40198 ft | 447 kts | 238° |
| 2026-05-04 08:08 | 23.61692 | -155.33804 | 40194 ft | 447 kts | 238° |
| 2026-05-04 08:10 | 23.45808 | -155.52990 | 40196 ft | 458 kts | 217° |
| 2026-05-04 08:11 | 23.43143 | -155.54896 | 40196 ft | 458 kts | 217° |
| 2026-05-04 08:11 | 23.35151 | -155.60636 | 40195 ft | 458 kts | 218° |
| 2026-05-04 08:12 | 23.29830 | -155.64468 | 40193 ft | 459 kts | 218° |
| 2026-05-04 08:12 | 23.24505 | -155.68303 | 40189 ft | 459 kts | 218° |
| 2026-05-04 08:13 | 23.19178 | -155.72136 | 40191 ft | 459 kts | 218° |
| 2026-05-04 08:13 | 23.13855 | -155.75962 | 40190 ft | 459 kts | 218° |
| 2026-05-04 08:14 | 23.08529 | -155.79787 | 40190 ft | 459 kts | 218° |
| 2026-05-04 08:16 | 22.87411 | -155.94911 | 40183 ft | 435 kts | 218° |
| 2026-05-04 08:16 | 22.82376 | -155.98513 | 40185 ft | 433 kts | 218° |
| 2026-05-04 08:17 | 22.77343 | -156.02110 | 40177 ft | 433 kts | 218° |
| 2026-05-04 08:17 | 22.72338 | -156.05683 | 40092 ft | 432 kts | 218° |
| 2026-05-04 08:19 | 22.54924 | -156.18084 | 38390 ft | 431 kts | 217° |
| 2026-05-04 08:19 | 22.52414 | -156.19869 | 38093 ft | 433 kts | 217° |
| 2026-05-04 08:20 | 22.49895 | -156.21659 | 37832 ft | 434 kts | 217° |
| 2026-05-04 08:20 | 22.47369 | -156.23453 | 37569 ft | 435 kts | 217° |
| 2026-05-04 08:20 | 22.44835 | -156.25252 | 37316 ft | 436 kts | 217° |
| 2026-05-04 08:20 | 22.42292 | -156.27056 | 37058 ft | 438 kts | 217° |
| 2026-05-04 08:21 | 22.39748 | -156.28860 | 36799 ft | 435 kts | 217° |
| 2026-05-04 08:21 | 22.37233 | -156.30642 | 36427 ft | 432 kts | 217° |
| 2026-05-04 08:21 | 22.34724 | -156.32420 | 35945 ft | 431 kts | 217° |
| 2026-05-04 08:21 | 22.32327 | -156.34341 | 35436 ft | 427 kts | 226° |
| 2026-05-04 08:22 | 22.30287 | -156.36645 | 34900 ft | 425 kts | 232° |
| 2026-05-04 08:22 | 22.28379 | -156.39093 | 34315 ft | 426 kts | 233° |
| 2026-05-04 08:24 | 22.15150 | -156.56346 | 30606 ft | 420 kts | 233° |
| 2026-05-04 08:24 | 22.13285 | -156.58767 | 30151 ft | 419 kts | 232° |
| 2026-05-04 08:24 | 22.11428 | -156.61175 | 29658 ft | 416 kts | 233° |
| 2026-05-04 08:24 | 22.09583 | -156.63567 | 29217 ft | 413 kts | 232° |
| 2026-05-04 08:25 | 22.07749 | -156.65943 | 28783 ft | 410 kts | 232° |
| 2026-05-04 08:25 | 22.05932 | -156.68296 | 28338 ft | 407 kts | 232° |
| 2026-05-04 08:25 | 22.04128 | -156.70631 | 27899 ft | 404 kts | 232° |
| 2026-05-04 08:25 | 22.02336 | -156.72950 | 27475 ft | 401 kts | 232° |
| 2026-05-04 08:26 | 22.00560 | -156.75247 | 27051 ft | 398 kts | 233° |
| 2026-05-04 08:27 | 21.88420 | -156.90924 | 24050 ft | 380 kts | 232° |
| 2026-05-04 08:28 | 21.86727 | -156.93107 | 23616 ft | 378 kts | 232° |
| 2026-05-04 08:28 | 21.85046 | -156.95274 | 23169 ft | 375 kts | 232° |
| 2026-05-04 08:28 | 21.83385 | -156.97416 | 22771 ft | 371 kts | 232° |
| 2026-05-04 08:28 | 21.81738 | -156.99539 | 22357 ft | 368 kts | 232° |
| 2026-05-04 08:29 | 21.80122 | -157.01622 | 21943 ft | 367 kts | 233° |
| 2026-05-04 08:29 | 21.76826 | -157.05870 | 21123 ft | 363 kts | 233° |
| 2026-05-04 08:31 | 21.65626 | -157.20281 | 18355 ft | 354 kts | 231° |
| 2026-05-04 08:33 | 21.54803 | -157.34171 | 15398 ft | 339 kts | 231° |
| 2026-05-04 08:33 | 21.53294 | -157.36104 | 15008 ft | 337 kts | 232° |
| 2026-05-04 08:35 | 21.42948 | -157.49343 | 12356 ft | 326 kts | 231° |
| 2026-05-04 08:35 | 21.41491 | -157.51205 | 11993 ft | 325 kts | 230° |
| 2026-05-04 08:35 | 21.40040 | -157.53058 | 11622 ft | 324 kts | 230° |
| 2026-05-04 08:35 | 21.38596 | -157.54901 | 11249 ft | 322 kts | 230° |
| 2026-05-04 08:37 | 21.30578 | -157.65121 | 10036 ft | 282 kts | 229° |
| 2026-05-04 08:37 | 21.29316 | -157.66727 | 9716 ft | 281 kts | 229° |
| 2026-05-04 08:37 | 21.28065 | -157.68319 | 9474 ft | 278 kts | 229° |
| 2026-05-04 08:38 | 21.26943 | -157.69999 | 9184 ft | 277 kts | 242° |
| 2026-05-04 08:38 | 21.26358 | -157.71960 | 8905 ft | 277 kts | 260° |
| 2026-05-04 08:38 | 21.26119 | -157.74009 | 8651 ft | 277 kts | 264° |
| 2026-05-04 08:40 | 21.24867 | -157.88106 | 7137 ft | 256 kts | 263° |
| 2026-05-04 08:40 | 21.24695 | -157.89971 | 7025 ft | 246 kts | 263° |
| 2026-05-04 08:40 | 21.24526 | -157.91789 | 6715 ft | 244 kts | 263° |
| 2026-05-04 08:41 | 21.24358 | -157.93599 | 6276 ft | 246 kts | 263° |
| 2026-05-04 08:41 | 21.24188 | -157.95405 | 5831 ft | 245 kts | 263° |
| 2026-05-04 08:41 | 21.24019 | -157.97217 | 5342 ft | 245 kts | 263° |
| 2026-05-04 08:41 | 21.23858 | -157.99045 | 4900 ft | 244 kts | 265° |
| 2026-05-04 08:42 | 21.23808 | -158.00827 | 4731 ft | 229 kts | 269° |
| 2026-05-04 08:42 | 21.23803 | -158.02459 | 4547 ft | 218 kts | 270° |
| 2026-05-04 08:42 | 21.23805 | -158.04084 | 4189 ft | 218 kts | 270° |
| 2026-05-04 08:42 | 21.23830 | -158.05715 | 3809 ft | 218 kts | 277° |
| 2026-05-04 08:43 | 21.24400 | -158.07164 | 3490 ft | 208 kts | 315° |
| 2026-05-04 08:43 | 21.25548 | -158.07918 | 3275 ft | 184 kts | 355° |
| 2026-05-04 08:43 | 21.26753 | -158.08037 | 3130 ft | 169 kts | 7° |
| 2026-05-04 08:43 | 21.27909 | -158.07952 | 2880 ft | 164 kts | 17° |
| 2026-05-04 08:44 | 21.29016 | -158.07728 | 2622 ft | 160 kts | 19° |
| 2026-05-04 08:44 | 21.30076 | -158.07492 | 2480 ft | 152 kts | 19° |
| 2026-05-04 08:46 | 21.32523 | -158.02162 | 1454 ft | 119 kts | 88° |
| 2026-05-04 08:46 | 21.32520 | -158.01268 | 1292 ft | 119 kts | 87° |
| 2026-05-04 08:46 | 21.32493 | -158.00374 | 1211 ft | 121 kts | 84° |
| 2026-05-04 08:46 | 21.32505 | -157.99469 | 1017 ft | 119 kts | 83° |
| 2026-05-04 08:47 | 21.32528 | -157.98585 | 829 ft | 120 kts | 88° |
| 2026-05-04 08:47 | 21.32519 | -157.97671 | 671 ft | 125 kts | 88° |
| 2026-05-04 08:47 | 21.32519 | -157.96746 | 518 ft | 124 kts | 88° |
| 2026-05-04 08:47 | 21.32521 | -157.95824 | 352 ft | 124 kts | 87° |
| 2026-05-04 08:48 | 21.32518 | -157.94910 | 171 ft | 122 kts | 89° |
| 2026-05-04 08:48 | 21.32524 | -157.93998 | 40 ft | 121 kts | 88° |
| 2026-05-04 08:48 | 21.32525 | -157.93168 | 28 ft | 98 kts | 90° |
| 2026-05-04 08:48 | 21.32527 | -157.92523 | 28 ft | 78 kts | 91° |
| 2026-05-04 08:49 | 21.32526 | -157.92090 | 28 ft | 24 kts | 90° |
| 2026-05-04 08:50 | 21.32691 | -157.91944 | 28 ft | 8 kts | 279° |
| 2026-05-04 08:50 | 21.32693 | -157.92014 | 28 ft | 11 kts | 270° |
| 2026-05-04 08:51 | 21.32693 | -157.92112 | 28 ft | 15 kts | 270° |
| 2026-05-04 08:51 | 21.32693 | -157.92233 | 28 ft | 17 kts | 270° |
| 2026-05-04 08:51 | 21.32693 | -157.92350 | 28 ft | 17 kts | 270° |
| 2026-05-04 08:51 | 21.32693 | -157.92489 | 28 ft | 16 kts | 270° |
| 2026-05-04 08:52 | 21.32693 | -157.92597 | 28 ft | 15 kts | 270° |
| 2026-05-04 08:52 | 21.32693 | -157.92716 | 28 ft | 12 kts | 270° |
| 2026-05-04 08:52 | 21.32726 | -157.92789 | 28 ft | 10 kts | 314° |
| 2026-05-04 08:52 | 21.32797 | -157.92807 | 28 ft | 13 kts | 358° |
| 2026-05-04 08:53 | 21.32886 | -157.92798 | 28 ft | 12 kts | 18° |
| 2026-05-04 08:54 | 21.33400 | -157.92533 | 28 ft | 9 kts | 7° |
| 2026-05-04 08:55 | 21.33452 | -157.92533 | 28 ft | 6 kts | 348° |
| 2026-05-04 08:55 | 21.33494 | -157.92556 | 28 ft | 6 kts | 327° |
| 2026-05-04 08:55 | 21.33529 | -157.92583 | 28 ft | 5 kts | 324° |
| 2026-05-04 08:55 | 21.33560 | -157.92593 | 28 ft | 4 kts | 6° |
| 2026-05-04 08:57 | 21.33577 | -157.92517 | 28 ft | 0 kts | 75° |